sensor_id;sensor_type;location;lat;lon;timestamp;temperature;humidity
20929;DHT22;21895;47.072;15.132;2023-02-18T00:01:29;5.90;99.90
20929;DHT22;21895;47.072;15.132;2023-02-18T00:03:58;5.70;99.90
20929;DHT22;21895;47.072;15.132;2023-02-18T00:06:29;5.60;99.90
20929;DHT22;21895;47.072;15.132;2023-02-18T00:08:57;5.60;99.90
20929;DHT22;21895;47.072;15.132;2023-02-18T00:11:29;5.60;99.90
20929;DHT22;21895;47.072;15.132;2023-02-18T00:13:59;5.90;99.90
20929;DHT22;21895;47.072;15.132;2023-02-18T00:16:28;6.10;99.90
20929;DHT22;21895;47.072;15.132;2023-02-18T00:19:00;6.20;99.90
20929;DHT22;21895;47.072;15.132;2023-02-18T00:21:29;6.10;99.90
20929;DHT22;21895;47.072;15.132;2023-02-18T00:23:57;6.10;99.90
20929;DHT22;21895;47.072;15.132;2023-02-18T00:26:23;6.10;99.90
20929;DHT22;21895;47.072;15.132;2023-02-18T00:28:50;6.10;99.90
20929;DHT22;21895;47.072;15.132;2023-02-18T00:31:20;6.20;99.90
20929;DHT22;21895;47.072;15.132;2023-02-18T00:33:49;6.30;99.90
20929;DHT22;21895;47.072;15.132;2023-02-18T00:36:17;6.30;99.90
20929;DHT22;21895;47.072;15.132;2023-02-18T00:38:51;6.30;99.90
20929;DHT22;21895;47.072;15.132;2023-02-18T00:41:24;6.40;99.90
20929;DHT22;21895;47.072;15.132;2023-02-18T00:43:53;6.40;99.90
20929;DHT22;21895;47.072;15.132;2023-02-18T00:46:21;6.40;99.90
20929;DHT22;21895;47.072;15.132;2023-02-18T00:48:48;6.50;99.90
20929;DHT22;21895;47.072;15.132;2023-02-18T00:51:14;6.40;99.90
20929;DHT22;21895;47.072;15.132;2023-02-18T00:53:41;6.40;99.90
20929;DHT22;21895;47.072;15.132;2023-02-18T00:56:08;6.40;99.90
20929;DHT22;21895;47.072;15.132;2023-02-18T00:58:36;6.30;99.90
20929;DHT22;21895;47.072;15.132;2023-02-18T01:01:04;6.30;99.90
20929;DHT22;21895;47.072;15.132;2023-02-18T01:03:33;6.30;99.90
20929;DHT22;21895;47.072;15.132;2023-02-18T01:06:06;6.20;99.90
20929;DHT22;21895;47.072;15.132;2023-02-18T01:08:34;6.10;99.90
20929;DHT22;21895;47.072;15.132;2023-02-18T01:11:02;6.10;99.90
20929;DHT22;21895;47.072;15.132;2023-02-18T01:13:30;6.10;99.90
20929;DHT22;21895;47.072;15.132;2023-02-18T01:15:57;6.00;99.90
20929;DHT22;21895;47.072;15.132;2023-02-18T01:18:25;6.00;99.90
20929;DHT22;21895;47.072;15.132;2023-02-18T01:20:52;5.80;99.90
20929;DHT22;21895;47.072;15.132;2023-02-18T01:23:19;6.00;99.90
20929;DHT22;21895;47.072;15.132;2023-02-18T01:25:47;6.10;99.90
20929;DHT22;21895;47.072;15.132;2023-02-18T01:28:14;6.00;99.90
20929;DHT22;21895;47.072;15.132;2023-02-18T01:30:41;5.90;99.90
20929;DHT22;21895;47.072;15.132;2023-02-18T01:33:08;5.80;99.90
20929;DHT22;21895;47.072;15.132;2023-02-18T01:35:37;5.80;99.90
20929;DHT22;21895;47.072;15.132;2023-02-18T01:38:04;5.70;99.90
20929;DHT22;21895;47.072;15.132;2023-02-18T01:40:31;5.70;99.90
20929;DHT22;21895;47.072;15.132;2023-02-18T01:42:57;5.60;99.90
20929;DHT22;21895;47.072;15.132;2023-02-18T01:46:24;5.60;99.90
20929;DHT22;21895;47.072;15.132;2023-02-18T01:48:56;5.70;99.90
20929;DHT22;21895;47.072;15.132;2023-02-18T01:51:32;5.70;99.90
20929;DHT22;21895;47.072;15.132;2023-02-18T01:54:12;5.50;99.90
20929;DHT22;21895;47.072;15.132;2023-02-18T01:57:30;5.50;99.90
20929;DHT22;21895;47.072;15.132;2023-02-18T02:00:14;5.70;99.90
20929;DHT22;21895;47.072;15.132;2023-02-18T02:02:46;5.90;99.90
20929;DHT22;21895;47.072;15.132;2023-02-18T02:05:17;5.90;99.90
20929;DHT22;21895;47.072;15.132;2023-02-18T02:07:49;5.80;99.90
20929;DHT22;21895;47.072;15.132;2023-02-18T02:10:19;5.80;99.90
20929;DHT22;21895;47.072;15.132;2023-02-18T02:13:00;5.80;99.90
20929;DHT22;21895;47.072;15.132;2023-02-18T02:16:25;5.90;99.90
20929;DHT22;21895;47.072;15.132;2023-02-18T02:21:34;6.00;99.90
20929;DHT22;21895;47.072;15.132;2023-02-18T02:42:06;5.70;99.90
20929;DHT22;21895;47.072;15.132;2023-02-18T02:44:55;5.50;99.90
20929;DHT22;21895;47.072;15.132;2023-02-18T02:52:54;5.60;99.90
20929;DHT22;21895;47.072;15.132;2023-02-18T02:55:24;5.60;99.90
20929;DHT22;21895;47.072;15.132;2023-02-18T02:57:53;5.60;99.90
20929;DHT22;21895;47.072;15.132;2023-02-18T03:00:36;5.70;99.90
20929;DHT22;21895;47.072;15.132;2023-02-18T03:14:01;5.50;99.90
20929;DHT22;21895;47.072;15.132;2023-02-18T03:17:41;5.20;99.90
20929;DHT22;21895;47.072;15.132;2023-02-18T03:20:52;5.00;99.90
20929;DHT22;21895;47.072;15.132;2023-02-18T03:23:27;5.10;99.90
20929;DHT22;21895;47.072;15.132;2023-02-18T03:26:01;5.10;99.90
20929;DHT22;21895;47.072;15.132;2023-02-18T03:28:31;5.20;99.90
20929;DHT22;21895;47.072;15.132;2023-02-18T03:31:05;5.20;99.90
20929;DHT22;21895;47.072;15.132;2023-02-18T03:33:44;5.40;99.90
20929;DHT22;21895;47.072;15.132;2023-02-18T03:36:19;5.30;99.90
20929;DHT22;21895;47.072;15.132;2023-02-18T03:38:55;5.30;99.90
20929;DHT22;21895;47.072;15.132;2023-02-18T03:41:28;5.30;99.90
20929;DHT22;21895;47.072;15.132;2023-02-18T03:44:00;5.40;99.90
20929;DHT22;21895;47.072;15.132;2023-02-18T03:46:29;5.40;99.90
20929;DHT22;21895;47.072;15.132;2023-02-18T03:48:56;5.50;99.90
20929;DHT22;21895;47.072;15.132;2023-02-18T03:51:23;5.40;99.90
20929;DHT22;21895;47.072;15.132;2023-02-18T03:53:49;5.40;99.90
20929;DHT22;21895;47.072;15.132;2023-02-18T03:56:16;5.40;99.90
20929;DHT22;21895;47.072;15.132;2023-02-18T03:58:44;5.40;99.90
20929;DHT22;21895;47.072;15.132;2023-02-18T04:01:10;5.40;99.90
20929;DHT22;21895;47.072;15.132;2023-02-18T04:03:37;5.40;99.90
20929;DHT22;21895;47.072;15.132;2023-02-18T04:06:04;5.50;99.90
20929;DHT22;21895;47.072;15.132;2023-02-18T04:08:31;5.60;99.90
20929;DHT22;21895;47.072;15.132;2023-02-18T04:10:57;5.60;99.90
20929;DHT22;21895;47.072;15.132;2023-02-18T04:13:24;5.60;99.90
20929;DHT22;21895;47.072;15.132;2023-02-18T04:15:51;5.70;99.90
20929;DHT22;21895;47.072;15.132;2023-02-18T04:18:18;5.60;99.90
20929;DHT22;21895;47.072;15.132;2023-02-18T04:20:45;5.60;99.90
20929;DHT22;21895;47.072;15.132;2023-02-18T04:23:11;5.60;99.90
20929;DHT22;21895;47.072;15.132;2023-02-18T04:25:38;5.60;99.90
20929;DHT22;21895;47.072;15.132;2023-02-18T04:28:05;5.70;99.90
20929;DHT22;21895;47.072;15.132;2023-02-18T04:30:32;5.70;99.90
20929;DHT22;21895;47.072;15.132;2023-02-18T04:32:58;5.70;99.90
20929;DHT22;21895;47.072;15.132;2023-02-18T04:35:25;5.70;99.90
20929;DHT22;21895;47.072;15.132;2023-02-18T04:37:51;5.70;99.90
20929;DHT22;21895;47.072;15.132;2023-02-18T04:40:18;5.60;99.90
20929;DHT22;21895;47.072;15.132;2023-02-18T04:42:44;5.60;99.90
20929;DHT22;21895;47.072;15.132;2023-02-18T04:45:11;5.70;99.90
20929;DHT22;21895;47.072;15.132;2023-02-18T04:47:37;5.70;99.90
20929;DHT22;21895;47.072;15.132;2023-02-18T04:50:05;5.80;99.90
20929;DHT22;21895;47.072;15.132;2023-02-18T04:52:32;5.80;99.90
20929;DHT22;21895;47.072;15.132;2023-02-18T04:54:58;5.80;99.90
20929;DHT22;21895;47.072;15.132;2023-02-18T04:57:25;5.80;99.90
20929;DHT22;21895;47.072;15.132;2023-02-18T04:59:51;5.90;99.90
20929;DHT22;21895;47.072;15.132;2023-02-18T05:02:18;6.20;99.90
20929;DHT22;21895;47.072;15.132;2023-02-18T05:04:44;6.30;99.90
20929;DHT22;21895;47.072;15.132;2023-02-18T05:07:11;6.20;99.90
20929;DHT22;21895;47.072;15.132;2023-02-18T05:09:37;6.20;99.90
20929;DHT22;21895;47.072;15.132;2023-02-18T05:12:04;6.20;99.90
20929;DHT22;21895;47.072;15.132;2023-02-18T05:14:31;6.10;99.90
20929;DHT22;21895;47.072;15.132;2023-02-18T05:16:58;6.30;99.90
20929;DHT22;21895;47.072;15.132;2023-02-18T05:19:24;6.20;99.90
20929;DHT22;21895;47.072;15.132;2023-02-18T05:21:51;6.10;99.90
20929;DHT22;21895;47.072;15.132;2023-02-18T05:24:17;6.10;99.90
20929;DHT22;21895;47.072;15.132;2023-02-18T05:26:44;6.00;99.90
20929;DHT22;21895;47.072;15.132;2023-02-18T05:29:10;6.00;99.90
20929;DHT22;21895;47.072;15.132;2023-02-18T05:31:37;6.10;99.90
20929;DHT22;21895;47.072;15.132;2023-02-18T05:34:03;6.20;99.90
20929;DHT22;21895;47.072;15.132;2023-02-18T05:36:30;6.40;99.90
20929;DHT22;21895;47.072;15.132;2023-02-18T05:38:57;6.40;99.90
20929;DHT22;21895;47.072;15.132;2023-02-18T05:41:23;6.40;99.90
20929;DHT22;21895;47.072;15.132;2023-02-18T05:43:50;6.40;99.90
20929;DHT22;21895;47.072;15.132;2023-02-18T05:46:35;6.40;99.90
20929;DHT22;21895;47.072;15.132;2023-02-18T05:49:01;6.30;99.90
20929;DHT22;21895;47.072;15.132;2023-02-18T05:51:28;6.30;99.90
20929;DHT22;21895;47.072;15.132;2023-02-18T05:53:54;6.30;99.90
20929;DHT22;21895;47.072;15.132;2023-02-18T05:56:21;6.30;99.90
20929;DHT22;21895;47.072;15.132;2023-02-18T05:58:48;6.10;99.90
20929;DHT22;21895;47.072;15.132;2023-02-18T06:01:15;6.00;99.90
20929;DHT22;21895;47.072;15.132;2023-02-18T06:03:41;5.90;99.90
20929;DHT22;21895;47.072;15.132;2023-02-18T06:06:08;5.90;99.90
20929;DHT22;21895;47.072;15.132;2023-02-18T06:08:35;6.00;99.90
20929;DHT22;21895;47.072;15.132;2023-02-18T06:11:02;5.90;99.90
20929;DHT22;21895;47.072;15.132;2023-02-18T06:13:28;5.80;99.90
20929;DHT22;21895;47.072;15.132;2023-02-18T06:15:55;5.60;99.90
20929;DHT22;21895;47.072;15.132;2023-02-18T06:18:21;5.70;99.90
20929;DHT22;21895;47.072;15.132;2023-02-18T06:20:48;5.80;99.90
20929;DHT22;21895;47.072;15.132;2023-02-18T06:23:15;5.80;99.90
20929;DHT22;21895;47.072;15.132;2023-02-18T06:25:41;5.70;99.90
20929;DHT22;21895;47.072;15.132;2023-02-18T06:28:08;5.60;99.90
20929;DHT22;21895;47.072;15.132;2023-02-18T06:30:34;5.60;99.90
20929;DHT22;21895;47.072;15.132;2023-02-18T06:33:01;5.50;99.90
20929;DHT22;21895;47.072;15.132;2023-02-18T06:35:29;5.50;99.90
20929;DHT22;21895;47.072;15.132;2023-02-18T06:37:56;5.50;99.90
20929;DHT22;21895;47.072;15.132;2023-02-18T06:40:23;5.40;99.90
20929;DHT22;21895;47.072;15.132;2023-02-18T06:42:49;5.40;99.90
20929;DHT22;21895;47.072;15.132;2023-02-18T06:45:16;5.40;99.90
20929;DHT22;21895;47.072;15.132;2023-02-18T06:47:42;5.40;99.90
20929;DHT22;21895;47.072;15.132;2023-02-18T06:50:09;5.50;99.90
20929;DHT22;21895;47.072;15.132;2023-02-18T06:52:36;5.60;99.90
20929;DHT22;21895;47.072;15.132;2023-02-18T06:55:04;5.60;99.90
20929;DHT22;21895;47.072;15.132;2023-02-18T06:57:31;5.70;99.90
20929;DHT22;21895;47.072;15.132;2023-02-18T06:59:57;5.60;99.90
20929;DHT22;21895;47.072;15.132;2023-02-18T07:02:24;5.70;99.90
20929;DHT22;21895;47.072;15.132;2023-02-18T07:04:51;5.90;99.90
20929;DHT22;21895;47.072;15.132;2023-02-18T07:07:17;6.00;99.90
20929;DHT22;21895;47.072;15.132;2023-02-18T07:09:44;6.00;99.90
20929;DHT22;21895;47.072;15.132;2023-02-18T07:12:10;6.20;99.90
20929;DHT22;21895;47.072;15.132;2023-02-18T07:14:37;6.30;99.90
20929;DHT22;21895;47.072;15.132;2023-02-18T07:17:03;6.40;99.90
20929;DHT22;21895;47.072;15.132;2023-02-18T07:19:30;6.30;99.90
20929;DHT22;21895;47.072;15.132;2023-02-18T07:21:56;6.30;99.90
20929;DHT22;21895;47.072;15.132;2023-02-18T07:24:26;6.30;99.90
20929;DHT22;21895;47.072;15.132;2023-02-18T07:26:52;6.30;99.90
20929;DHT22;21895;47.072;15.132;2023-02-18T07:29:19;6.30;99.90
20929;DHT22;21895;47.072;15.132;2023-02-18T07:31:45;6.30;99.90
20929;DHT22;21895;47.072;15.132;2023-02-18T07:34:12;6.40;99.90
20929;DHT22;21895;47.072;15.132;2023-02-18T07:36:38;6.60;99.90
20929;DHT22;21895;47.072;15.132;2023-02-18T07:39:05;6.70;99.90
20929;DHT22;21895;47.072;15.132;2023-02-18T07:41:31;6.90;99.90
20929;DHT22;21895;47.072;15.132;2023-02-18T07:43:58;7.00;99.90
20929;DHT22;21895;47.072;15.132;2023-02-18T07:46:24;7.20;99.90
20929;DHT22;21895;47.072;15.132;2023-02-18T07:48:51;7.30;99.90
20929;DHT22;21895;47.072;15.132;2023-02-18T07:51:17;7.50;99.90
20929;DHT22;21895;47.072;15.132;2023-02-18T07:53:44;7.60;99.90
20929;DHT22;21895;47.072;15.132;2023-02-18T07:56:10;7.80;99.90
20929;DHT22;21895;47.072;15.132;2023-02-18T07:58:37;8.10;99.90
20929;DHT22;21895;47.072;15.132;2023-02-18T08:01:06;8.20;99.90
20929;DHT22;21895;47.072;15.132;2023-02-18T08:03:34;8.40;99.90
20929;DHT22;21895;47.072;15.132;2023-02-18T08:06:03;8.50;99.90
20929;DHT22;21895;47.072;15.132;2023-02-18T08:08:31;8.60;99.90
20929;DHT22;21895;47.072;15.132;2023-02-18T08:11:01;8.80;99.90
20929;DHT22;21895;47.072;15.132;2023-02-18T08:13:39;8.90;99.90
20929;DHT22;21895;47.072;15.132;2023-02-18T08:16:05;9.20;99.90
20929;DHT22;21895;47.072;15.132;2023-02-18T08:18:32;9.30;99.90
20929;DHT22;21895;47.072;15.132;2023-02-18T08:20:59;9.30;99.90
20929;DHT22;21895;47.072;15.132;2023-02-18T08:23:25;9.50;99.90
20929;DHT22;21895;47.072;15.132;2023-02-18T08:25:53;9.60;99.90
20929;DHT22;21895;47.072;15.132;2023-02-18T08:28:21;9.80;99.90
20929;DHT22;21895;47.072;15.132;2023-02-18T08:30:50;9.90;99.90
20929;DHT22;21895;47.072;15.132;2023-02-18T08:33:18;10.00;99.90
20929;DHT22;21895;47.072;15.132;2023-02-18T08:35:47;10.10;99.90
20929;DHT22;21895;47.072;15.132;2023-02-18T08:38:14;10.40;99.90
20929;DHT22;21895;47.072;15.132;2023-02-18T08:40:41;10.40;99.90
20929;DHT22;21895;47.072;15.132;2023-02-18T08:43:08;10.60;99.90
20929;DHT22;21895;47.072;15.132;2023-02-18T08:45:36;10.70;99.80
20929;DHT22;21895;47.072;15.132;2023-02-18T08:48:04;10.80;99.70
20929;DHT22;21895;47.072;15.132;2023-02-18T08:50:46;11.00;98.10
20929;DHT22;21895;47.072;15.132;2023-02-18T08:53:13;11.20;97.80
20929;DHT22;21895;47.072;15.132;2023-02-18T08:55:40;11.60;97.40
20929;DHT22;21895;47.072;15.132;2023-02-18T08:58:07;11.60;97.40
20929;DHT22;21895;47.072;15.132;2023-02-18T09:00:34;11.70;97.00
20929;DHT22;21895;47.072;15.132;2023-02-18T09:03:01;11.80;96.90
20929;DHT22;21895;47.072;15.132;2023-02-18T09:05:28;11.70;97.10
20929;DHT22;21895;47.072;15.132;2023-02-18T09:07:55;11.90;96.90
20929;DHT22;21895;47.072;15.132;2023-02-18T09:10:22;12.00;97.10
20929;DHT22;21895;47.072;15.132;2023-02-18T09:12:49;12.10;96.40
20929;DHT22;21895;47.072;15.132;2023-02-18T09:15:16;12.30;96.30
20929;DHT22;21895;47.072;15.132;2023-02-18T09:17:43;12.70;95.80
20929;DHT22;21895;47.072;15.132;2023-02-18T09:20:09;12.80;95.30
20929;DHT22;21895;47.072;15.132;2023-02-18T09:22:36;12.80;95.90
20929;DHT22;21895;47.072;15.132;2023-02-18T09:25:03;13.00;96.00
20929;DHT22;21895;47.072;15.132;2023-02-18T09:27:30;13.10;95.60
20929;DHT22;21895;47.072;15.132;2023-02-18T09:29:56;13.20;95.50
20929;DHT22;21895;47.072;15.132;2023-02-18T09:32:23;13.40;94.90
20929;DHT22;21895;47.072;15.132;2023-02-18T09:35:00;13.50;95.30
20929;DHT22;21895;47.072;15.132;2023-02-18T09:37:27;13.60;94.90
20929;DHT22;21895;47.072;15.132;2023-02-18T09:39:54;13.80;94.90
20929;DHT22;21895;47.072;15.132;2023-02-18T09:42:26;14.00;94.00
20929;DHT22;21895;47.072;15.132;2023-02-18T09:45:00;14.40;92.70
20929;DHT22;21895;47.072;15.132;2023-02-18T09:47:40;14.80;92.10
20929;DHT22;21895;47.072;15.132;2023-02-18T09:50:19;15.20;92.10
20929;DHT22;21895;47.072;15.132;2023-02-18T09:52:48;15.50;90.90
20929;DHT22;21895;47.072;15.132;2023-02-18T09:55:27;16.50;79.80
20929;DHT22;21895;47.072;15.132;2023-02-18T09:58:01;17.30;73.90
20929;DHT22;21895;47.072;15.132;2023-02-18T10:00:37;17.70;71.10
20929;DHT22;21895;47.072;15.132;2023-02-18T10:03:15;17.80;70.30
20929;DHT22;21895;47.072;15.132;2023-02-18T10:06:45;17.90;68.10
20929;DHT22;21895;47.072;15.132;2023-02-18T10:09:19;17.90;67.70
20929;DHT22;21895;47.072;15.132;2023-02-18T10:11:51;18.00;67.80
20929;DHT22;21895;47.072;15.132;2023-02-18T10:14:21;18.00;67.90
20929;DHT22;21895;47.072;15.132;2023-02-18T10:16:49;18.10;67.60
20929;DHT22;21895;47.072;15.132;2023-02-18T10:19:39;18.10;67.40
20929;DHT22;21895;47.072;15.132;2023-02-18T10:22:08;18.10;68.40
20929;DHT22;21895;47.072;15.132;2023-02-18T10:24:49;18.10;67.70
20929;DHT22;21895;47.072;15.132;2023-02-18T10:27:30;18.30;66.30
20929;DHT22;21895;47.072;15.132;2023-02-18T10:30:23;18.30;66.40
20929;DHT22;21895;47.072;15.132;2023-02-18T10:33:26;18.50;66.20
20929;DHT22;21895;47.072;15.132;2023-02-18T10:36:26;18.50;65.20
20929;DHT22;21895;47.072;15.132;2023-02-18T10:39:21;18.50;66.50
20929;DHT22;21895;47.072;15.132;2023-02-18T10:44:44;18.60;65.90
20929;DHT22;21895;47.072;15.132;2023-02-18T10:47:38;18.80;64.50
20929;DHT22;21895;47.072;15.132;2023-02-18T10:50:32;18.80;65.00
20929;DHT22;21895;47.072;15.132;2023-02-18T10:53:28;18.70;64.30
20929;DHT22;21895;47.072;15.132;2023-02-18T10:55:59;18.70;65.50
20929;DHT22;21895;47.072;15.132;2023-02-18T11:01:25;18.70;65.10
20929;DHT22;21895;47.072;15.132;2023-02-18T11:04:16;18.90;63.80
20929;DHT22;21895;47.072;15.132;2023-02-18T11:06:48;19.00;63.50
20929;DHT22;21895;47.072;15.132;2023-02-18T11:10:44;19.00;63.70
20929;DHT22;21895;47.072;15.132;2023-02-18T11:13:14;19.10;64.00
20929;DHT22;21895;47.072;15.132;2023-02-18T11:16:00;19.10;64.00
20929;DHT22;21895;47.072;15.132;2023-02-18T11:18:42;19.20;64.60
20929;DHT22;21895;47.072;15.132;2023-02-18T11:21:30;19.10;66.40
20929;DHT22;21895;47.072;15.132;2023-02-18T11:24:15;18.90;66.30
20929;DHT22;21895;47.072;15.132;2023-02-18T11:26:42;18.70;66.40
20929;DHT22;21895;47.072;15.132;2023-02-18T11:29:20;18.60;66.10
20929;DHT22;21895;47.072;15.132;2023-02-18T11:31:52;18.70;65.70
20929;DHT22;21895;47.072;15.132;2023-02-18T11:34:27;18.50;65.90
20929;DHT22;21895;47.072;15.132;2023-02-18T11:37:16;18.10;66.00
20929;DHT22;21895;47.072;15.132;2023-02-18T11:39:48;17.90;67.30
20929;DHT22;21895;47.072;15.132;2023-02-18T11:42:20;17.60;70.70
20929;DHT22;21895;47.072;15.132;2023-02-18T11:44:58;17.40;75.70
20929;DHT22;21895;47.072;15.132;2023-02-18T11:47:36;17.30;77.10
20929;DHT22;21895;47.072;15.132;2023-02-18T11:50:35;17.30;76.90
20929;DHT22;21895;47.072;15.132;2023-02-18T11:53:28;17.10;77.10
20929;DHT22;21895;47.072;15.132;2023-02-18T11:56:03;17.10;76.10
20929;DHT22;21895;47.072;15.132;2023-02-18T11:58:42;17.00;77.00
20929;DHT22;21895;47.072;15.132;2023-02-18T12:01:18;16.90;77.40
20929;DHT22;21895;47.072;15.132;2023-02-18T12:05:27;16.90;76.50
20929;DHT22;21895;47.072;15.132;2023-02-18T12:08:00;17.10;76.20
20929;DHT22;21895;47.072;15.132;2023-02-18T12:10:48;17.30;79.40
20929;DHT22;21895;47.072;15.132;2023-02-18T12:13:35;17.20;81.50
20929;DHT22;21895;47.072;15.132;2023-02-18T12:19:20;17.30;80.60
20929;DHT22;21895;47.072;15.132;2023-02-18T12:24:36;17.30;81.90
20929;DHT22;21895;47.072;15.132;2023-02-18T12:29:55;17.50;79.50
20929;DHT22;21895;47.072;15.132;2023-02-18T12:34:49;17.40;79.30
20929;DHT22;21895;47.072;15.132;2023-02-18T12:44:40;17.30;80.90
20929;DHT22;21895;47.072;15.132;2023-02-18T12:48:26;17.50;80.10
20929;DHT22;21895;47.072;15.132;2023-02-18T12:53:46;17.20;79.80
20929;DHT22;21895;47.072;15.132;2023-02-18T12:57:30;16.60;81.60
20929;DHT22;21895;47.072;15.132;2023-02-18T13:05:47;16.50;82.00
20929;DHT22;21895;47.072;15.132;2023-02-18T13:10:41;16.20;82.20
20929;DHT22;21895;47.072;15.132;2023-02-18T13:16:18;16.10;83.00
20929;DHT22;21895;47.072;15.132;2023-02-18T13:19:26;16.20;82.60
20929;DHT22;21895;47.072;15.132;2023-02-18T13:22:01;16.20;83.40
20929;DHT22;21895;47.072;15.132;2023-02-18T13:24:36;16.30;82.50
20929;DHT22;21895;47.072;15.132;2023-02-18T13:28:06;16.40;82.80
20929;DHT22;21895;47.072;15.132;2023-02-18T13:35:34;16.40;77.80
20929;DHT22;21895;47.072;15.132;2023-02-18T13:38:47;16.90;74.60
20929;DHT22;21895;47.072;15.132;2023-02-18T13:42:22;16.80;75.10
20929;DHT22;21895;47.072;15.132;2023-02-18T13:45:33;16.80;74.30
20929;DHT22;21895;47.072;15.132;2023-02-18T13:48:00;16.90;76.70
20929;DHT22;21895;47.072;15.132;2023-02-18T13:50:40;16.90;73.50
20929;DHT22;21895;47.072;15.132;2023-02-18T13:53:20;16.90;75.20
20929;DHT22;21895;47.072;15.132;2023-02-18T13:56:30;16.90;74.50
20929;DHT22;21895;47.072;15.132;2023-02-18T13:59:07;16.90;73.40
20929;DHT22;21895;47.072;15.132;2023-02-18T14:01:41;16.90;73.40
20929;DHT22;21895;47.072;15.132;2023-02-18T14:08:29;17.00;70.40
20929;DHT22;21895;47.072;15.132;2023-02-18T14:13:01;16.90;69.50
20929;DHT22;21895;47.072;15.132;2023-02-18T14:16:02;16.90;67.60
20929;DHT22;21895;47.072;15.132;2023-02-18T14:19:29;16.80;67.50
20929;DHT22;21895;47.072;15.132;2023-02-18T14:22:43;16.80;68.30
20929;DHT22;21895;47.072;15.132;2023-02-18T14:27:13;16.90;67.40
20929;DHT22;21895;47.072;15.132;2023-02-18T14:29:42;16.70;67.50
20929;DHT22;21895;47.072;15.132;2023-02-18T14:32:12;16.70;67.20
20929;DHT22;21895;47.072;15.132;2023-02-18T14:36:18;16.70;66.90
20929;DHT22;21895;47.072;15.132;2023-02-18T14:41:09;16.60;67.60
20929;DHT22;21895;47.072;15.132;2023-02-18T14:44:03;16.40;67.70
20929;DHT22;21895;47.072;15.132;2023-02-18T14:49:36;16.40;68.10
20929;DHT22;21895;47.072;15.132;2023-02-18T14:52:29;16.30;68.50
20929;DHT22;21895;47.072;15.132;2023-02-18T14:55:04;16.30;68.20
20929;DHT22;21895;47.072;15.132;2023-02-18T14:57:55;16.30;67.70
20929;DHT22;21895;47.072;15.132;2023-02-18T15:00:34;16.20;69.70
20929;DHT22;21895;47.072;15.132;2023-02-18T15:03:14;16.20;68.60
20929;DHT22;21895;47.072;15.132;2023-02-18T15:05:43;16.30;68.80
20929;DHT22;21895;47.072;15.132;2023-02-18T15:08:15;16.40;67.20
20929;DHT22;21895;47.072;15.132;2023-02-18T15:10:52;16.50;69.40
20929;DHT22;21895;47.072;15.132;2023-02-18T15:13:44;16.40;69.10
20929;DHT22;21895;47.072;15.132;2023-02-18T15:16:29;16.30;69.10
20929;DHT22;21895;47.072;15.132;2023-02-18T15:19:03;16.10;69.70
20929;DHT22;21895;47.072;15.132;2023-02-18T15:21:41;16.00;69.80
20929;DHT22;21895;47.072;15.132;2023-02-18T15:26:31;16.00;69.70
20929;DHT22;21895;47.072;15.132;2023-02-18T15:29:03;15.80;69.80
20929;DHT22;21895;47.072;15.132;2023-02-18T15:31:36;15.70;70.90
20929;DHT22;21895;47.072;15.132;2023-02-18T15:34:33;15.60;71.30
20929;DHT22;21895;47.072;15.132;2023-02-18T15:37:05;15.40;71.40
20929;DHT22;21895;47.072;15.132;2023-02-18T15:39:33;15.30;71.90
20929;DHT22;21895;47.072;15.132;2023-02-18T15:42:27;15.20;71.50
20929;DHT22;21895;47.072;15.132;2023-02-18T15:45:02;15.10;72.00
20929;DHT22;21895;47.072;15.132;2023-02-18T15:47:45;15.10;72.10
20929;DHT22;21895;47.072;15.132;2023-02-18T15:50:56;14.90;72.80
20929;DHT22;21895;47.072;15.132;2023-02-18T15:53:45;14.80;74.20
20929;DHT22;21895;47.072;15.132;2023-02-18T15:56:19;14.60;75.30
20929;DHT22;21895;47.072;15.132;2023-02-18T15:59:20;14.40;74.50
20929;DHT22;21895;47.072;15.132;2023-02-18T16:02:23;14.60;72.80
20929;DHT22;21895;47.072;15.132;2023-02-18T16:05:02;14.40;73.50
20929;DHT22;21895;47.072;15.132;2023-02-18T16:07:50;14.30;73.80
20929;DHT22;21895;47.072;15.132;2023-02-18T16:10:46;13.80;78.80
20929;DHT22;21895;47.072;15.132;2023-02-18T16:13:19;13.40;79.80
20929;DHT22;21895;47.072;15.132;2023-02-18T16:15:49;12.90;79.90
20929;DHT22;21895;47.072;15.132;2023-02-18T16:18:40;12.90;78.50
20929;DHT22;21895;47.072;15.132;2023-02-18T16:22:16;13.00;80.00
20929;DHT22;21895;47.072;15.132;2023-02-18T16:25:25;12.50;81.00
20929;DHT22;21895;47.072;15.132;2023-02-18T16:28:23;12.30;82.10
20929;DHT22;21895;47.072;15.132;2023-02-18T16:30:52;12.00;82.60
20929;DHT22;21895;47.072;15.132;2023-02-18T16:33:19;11.70;83.40
20929;DHT22;21895;47.072;15.132;2023-02-18T16:35:45;11.80;81.80
20929;DHT22;21895;47.072;15.132;2023-02-18T16:38:21;11.90;82.50
20929;DHT22;21895;47.072;15.132;2023-02-18T16:40:51;11.60;83.70
20929;DHT22;21895;47.072;15.132;2023-02-18T16:43:21;11.30;85.00
20929;DHT22;21895;47.072;15.132;2023-02-18T16:45:58;11.10;85.30
20929;DHT22;21895;47.072;15.132;2023-02-18T16:48:37;10.80;85.50
20929;DHT22;21895;47.072;15.132;2023-02-18T16:51:14;10.80;86.00
20929;DHT22;21895;47.072;15.132;2023-02-18T16:53:45;10.70;86.00
20929;DHT22;21895;47.072;15.132;2023-02-18T16:56:26;10.60;86.40
20929;DHT22;21895;47.072;15.132;2023-02-18T16:58:57;10.50;86.10
20929;DHT22;21895;47.072;15.132;2023-02-18T17:01:39;10.40;87.00
20929;DHT22;21895;47.072;15.132;2023-02-18T17:04:14;10.30;87.70
20929;DHT22;21895;47.072;15.132;2023-02-18T17:06:42;10.30;88.40
20929;DHT22;21895;47.072;15.132;2023-02-18T17:09:17;10.20;88.60
20929;DHT22;21895;47.072;15.132;2023-02-18T17:11:48;9.90;88.60
20929;DHT22;21895;47.072;15.132;2023-02-18T17:14:18;9.80;88.90
20929;DHT22;21895;47.072;15.132;2023-02-18T17:16:48;9.70;90.10
20929;DHT22;21895;47.072;15.132;2023-02-18T17:19:16;9.50;90.40
20929;DHT22;21895;47.072;15.132;2023-02-18T17:21:43;9.40;90.00
20929;DHT22;21895;47.072;15.132;2023-02-18T17:24:13;9.30;91.00
20929;DHT22;21895;47.072;15.132;2023-02-18T17:26:41;9.30;91.90
20929;DHT22;21895;47.072;15.132;2023-02-18T17:29:08;9.40;91.20
20929;DHT22;21895;47.072;15.132;2023-02-18T17:31:42;9.40;91.90
20929;DHT22;21895;47.072;15.132;2023-02-18T17:34:20;9.50;91.80
20929;DHT22;21895;47.072;15.132;2023-02-18T17:36:53;9.50;91.90
20929;DHT22;21895;47.072;15.132;2023-02-18T17:39:20;9.60;91.80
20929;DHT22;21895;47.072;15.132;2023-02-18T17:41:46;9.70;91.70
20929;DHT22;21895;47.072;15.132;2023-02-18T17:44:18;9.70;91.60
20929;DHT22;21895;47.072;15.132;2023-02-18T17:46:47;9.70;91.80
20929;DHT22;21895;47.072;15.132;2023-02-18T17:49:17;9.40;91.40
20929;DHT22;21895;47.072;15.132;2023-02-18T17:51:43;9.20;92.10